PWSweather.com
Personal Weather Stations
Station Observations
CAMPIGIANO
Campi Bisenzio, FirenzeIT

Campi BisenzioFirenzeIT

Lat: 43.8175012, Lon: 11.1391085

Elevation: 106

Station Type: LaCrosse WS2350

Latest ConditionsUpdated 8:15:22 AM GMT+01:01 Monday, Sep 1, 2014
Currently Today's Max Today's Min Today's Average
Temperature 68.6°F20.3°C 72.0°F22.2°C 62.0°F16.7°C 65.3°F18.5°C
Dew Point 58.8°F14.9°C 65.5°F18.6°C 58.2°F14.6°C 60.2°F15.7°C
Winds Calm Calm 4.5 mph N7.2 kmh N - 0.3 mph 0.5 kmh
Wind Gusts -- 5.8 mph9.3 kmh - -
Humidity 71% 89% 71% 84%
Pressure 29.67 in1004.7 mb 29.68 in1005.1 mb 29.62 in1003.0 mb -
Precipitation - 0.59 in15.0 mm - -
Hour Temp Dew Point Humidity Winds Wind Gusts Pressure Precip Precip Rate Daily Precip Total
08:15 AM 68.6°F20.3°C 58.8°F14.9°C 71% Calm Calm -- 29.67 in1004.7 mb 0.00 in0.0 mm 0.00 in/hr0.0 mm/hr 0.59 in15.0 mm
08:00 AM 67.3°F19.6°C 58.4°F14.7°C 73% 0.9 mph SSE1.4 kmh SSE -- 29.67 in1004.7 mb 0.00 in0.0 mm 0.00 in/hr0.0 mm/hr 0.59 in15.0 mm
07:45 AM 66.6°F19.2°C 59.1°F15.1°C 77% 2.0 mph NW3.2 kmh NW 2.0 mph3.2 kmh 29.67 in1004.7 mb 0.00 in0.0 mm 0.00 in/hr0.0 mm/hr 0.59 in15.0 mm
07:30 AM 65.3°F18.5°C 59.3°F15.2°C 81% Calm Calm -- 29.67 in1004.7 mb 0.00 in0.0 mm 0.00 in/hr0.0 mm/hr 0.59 in15.0 mm
07:15 AM 63.1°F17.3°C 58.2°F14.6°C 84% Calm Calm -- 29.66 in1004.4 mb 0.00 in0.0 mm 0.00 in/hr0.0 mm/hr 0.59 in15.0 mm
07:00 AM 63.1°F17.3°C 58.2°F14.6°C 84% Calm Calm -- 29.66 in1004.4 mb 0.00 in0.0 mm 0.00 in/hr0.0 mm/hr 0.59 in15.0 mm
06:45 AM 63.3°F17.4°C 58.4°F14.7°C 84% Calm Calm -- 29.66 in1004.4 mb 0.00 in0.0 mm 0.00 in/hr0.0 mm/hr 0.59 in15.0 mm
06:30 AM 63.3°F17.4°C 59.1°F15.1°C 86% Calm Calm -- 29.66 in1004.4 mb 0.00 in0.0 mm 0.00 in/hr0.0 mm/hr 0.59 in15.0 mm
06:15 AM 63.1°F17.3°C 59.2°F15.1°C 87% Calm Calm -- 29.66 in1004.4 mb 0.00 in0.0 mm 0.00 in/hr0.0 mm/hr 0.59 in15.0 mm
06:00 AM 62.8°F17.1°C 58.9°F14.9°C 87% Calm Calm -- 29.65 in1004.1 mb 0.00 in0.0 mm 0.00 in/hr0.0 mm/hr 0.59 in15.0 mm
05:45 AM 62.0°F16.7°C 58.4°F14.7°C 88% 0.2 mph NE0.3 kmh NE 2.0 mph3.2 kmh 29.64 in1003.7 mb 0.00 in0.0 mm 0.00 in/hr0.0 mm/hr 0.59 in15.0 mm
05:30 AM 62.1°F16.7°C 58.5°F14.7°C 88% Calm Calm -- 29.64 in1003.7 mb 0.00 in0.0 mm 0.00 in/hr0.0 mm/hr 0.59 in15.0 mm
05:15 AM 62.4°F16.9°C 59.1°F15.1°C 89% Calm Calm -- 29.64 in1003.7 mb 0.02 in0.5 mm 0.08 in/hr2.0 mm/hr 0.59 in15.0 mm
05:00 AM 62.8°F17.1°C 59.5°F15.3°C 89% Calm Calm -- 29.66 in1004.4 mb 0.00 in0.0 mm 0.00 in/hr0.0 mm/hr 0.56 in14.2 mm
04:45 AM 62.4°F16.9°C 59.1°F15.1°C 89% Calm Calm -- 29.66 in1004.4 mb 0.02 in0.5 mm 0.08 in/hr2.0 mm/hr 0.56 in14.2 mm
04:30 AM 62.2°F16.8°C 59.0°F15.0°C 89% Calm Calm -- 29.64 in1003.7 mb 0.02 in0.5 mm 0.08 in/hr2.0 mm/hr 0.54 in13.7 mm
04:15 AM 62.4°F16.9°C 59.1°F15.1°C 89% Calm Calm -- 29.64 in1003.7 mb 0.02 in0.5 mm 0.08 in/hr2.0 mm/hr 0.52 in13.2 mm
04:00 AM 62.8°F17.1°C 59.2°F15.1°C 88% Calm Calm -- 29.62 in1003.0 mb 0.00 in0.0 mm 0.00 in/hr0.0 mm/hr 0.50 in12.7 mm
03:45 AM 63.3°F17.4°C 59.4°F15.2°C 87% Calm Calm -- 29.66 in1004.4 mb 0.02 in0.5 mm 0.08 in/hr2.0 mm/hr 0.50 in12.7 mm
03:30 AM 63.0°F17.2°C 59.1°F15.1°C 87% Calm Calm -- 29.64 in1003.7 mb 0.04 in1.0 mm 0.16 in/hr4.1 mm/hr 0.48 in12.2 mm
03:15 AM 63.1°F17.3°C 58.9°F14.9°C 86% Calm Calm -- 29.66 in1004.4 mb 0.06 in1.5 mm 0.24 in/hr6.1 mm/hr 0.44 in11.2 mm
03:00 AM 63.3°F17.4°C 58.7°F14.8°C 85% 1.6 mph ESE2.6 kmh ESE 2.5 mph4.0 kmh 29.65 in1004.1 mb 0.19 in4.8 mm 0.25 in/hr6.4 mm/hr 0.38 in9.7 mm
02:45 AM 64.6°F18.1°C 59.6°F15.3°C 84% Calm Calm -- 29.66 in1004.4 mb 0.13 in3.3 mm 0.52 in/hr13.2 mm/hr 0.21 in5.3 mm
02:30 AM 66.0°F18.9°C 60.0°F15.6°C 81% 0.9 mph N1.4 kmh N 1.3 mph2.1 kmh 29.66 in1004.4 mb 0.08 in2.0 mm 0.32 in/hr8.1 mm/hr 0.08 in2.0 mm
02:15 AM 71.2°F21.8°C 65.5°F18.6°C 82% 4.5 mph N7.2 kmh N 5.8 mph9.3 kmh 29.68 in1005.1 mb 0.00 in0.0 mm 0.00 in/hr0.0 mm/hr 0.00 in0.0 mm
02:00 AM 71.4°F21.9°C 65.3°F18.5°C 81% Calm Calm -- 29.67 in1004.7 mb 0.00 in0.0 mm 0.00 in/hr0.0 mm/hr 0.00 in0.0 mm
01:45 AM 72.0°F22.2°C 65.1°F18.4°C 79% Calm Calm -- 29.66 in1004.4 mb 0.00 in0.0 mm 0.00 in/hr0.0 mm/hr 0.00 in0.0 mm
01:30 AM 72.0°F22.2°C 65.1°F18.4°C 79% Calm Calm -- 29.66 in1004.4 mb 0.00 in0.0 mm 0.00 in/hr0.0 mm/hr 0.00 in0.0 mm
01:15 AM 71.8°F22.1°C 64.9°F18.3°C 79% Calm Calm -- 29.66 in1004.4 mb 0.00 in0.0 mm 0.00 in/hr0.0 mm/hr 0.00 in0.0 mm
01:00 AM 71.6°F22.0°C 64.7°F18.2°C 79% Calm Calm -- 29.67 in1004.7 mb 0.00 in0.0 mm 0.00 in/hr0.0 mm/hr 0.00 in0.0 mm